sensor_id;sensor_type;location;lat;lon;timestamp;pressure;altitude;pressure_sealevel;temperature;humidity
36304;BME280;22335;49.800;8.596;2023-11-18T00:00:19;101417.66;;;12.20;65.08
36304;BME280;22335;49.800;8.596;2023-11-18T00:07:04;101098.25;;;10.22;65.00
36304;BME280;22335;49.800;8.596;2023-11-18T00:13:48;101340.22;;;11.62;64.72
36304;BME280;22335;49.800;8.596;2023-11-18T00:21:03;101427.00;;;12.24;64.73
36304;BME280;22335;49.800;8.596;2023-11-18T00:27:48;101039.84;;;9.80;64.62
36304;BME280;22335;49.800;8.596;2023-11-18T00:43:19;101253.19;;;11.01;64.51
36304;BME280;22335;49.800;8.596;2023-11-18T00:58:51;101153.88;;;10.37;64.55
36304;BME280;22335;49.800;8.596;2023-11-18T01:05:50;101397.03;;;11.87;64.29
36304;BME280;22335;49.800;8.596;2023-11-18T01:12:34;101440.13;;;12.02;64.04
36304;BME280;22335;49.800;8.596;2023-11-18T01:19:19;101438.19;;;11.97;63.81
36304;BME280;22335;49.800;8.596;2023-11-18T01:26:05;101110.81;;;9.70;63.66
36304;BME280;22335;49.800;8.596;2023-11-18T01:32:49;101437.91;;;11.93;63.73
36304;BME280;22335;49.800;8.596;2023-11-18T01:39:35;101063.66;;;9.42;63.53
36304;BME280;22335;49.800;8.596;2023-11-18T01:46:19;101439.22;;;11.86;63.53
36304;BME280;22335;49.800;8.596;2023-11-18T01:53:06;101444.13;;;11.78;63.53
36304;BME280;22335;49.800;8.596;2023-11-18T01:59:53;101444.38;;;11.72;63.57
36304;BME280;22335;49.800;8.596;2023-11-18T02:06:37;101444.34;;;11.67;63.25
36304;BME280;22335;49.800;8.596;2023-11-18T02:13:22;101313.72;;;10.62;63.01
36304;BME280;22335;49.800;8.596;2023-11-18T02:20:10;101304.88;;;10.50;63.00
36304;BME280;22335;49.800;8.596;2023-11-18T02:27:00;100915.63;;;8.01;63.17
36304;BME280;22335;49.800;8.596;2023-11-18T02:33:48;101457.25;;;11.24;62.95
36304;BME280;22335;49.800;8.596;2023-11-18T02:40:39;101461.06;;;11.18;62.87
36304;BME280;22335;49.800;8.596;2023-11-18T02:56:20;101254.34;;;9.56;62.94
36304;BME280;22335;49.800;8.596;2023-11-18T03:03:03;101454.25;;;10.83;62.83
36304;BME280;22335;49.800;8.596;2023-11-18T03:09:48;101458.03;;;10.77;62.95
36304;BME280;22335;49.800;8.596;2023-11-18T03:24:39;101437.69;;;10.68;62.73
36304;BME280;22335;49.800;8.596;2023-11-18T03:31:24;101432.00;;;10.69;62.83
36304;BME280;22335;49.800;8.596;2023-11-18T03:38:09;101439.03;;;10.60;62.64
36304;BME280;22335;49.800;8.596;2023-11-18T03:44:56;101372.16;;;10.19;62.60
36304;BME280;22335;49.800;8.596;2023-11-18T04:06:52;101443.31;;;10.51;62.70
36304;BME280;22335;49.800;8.596;2023-11-18T04:13:36;101431.34;;;10.62;62.55
36304;BME280;22335;49.800;8.596;2023-11-18T04:20:20;101205.53;;;9.05;62.39
36304;BME280;22335;49.800;8.596;2023-11-18T04:27:06;101425.47;;;10.43;62.48
36304;BME280;22335;49.800;8.596;2023-11-18T04:33:50;101341.34;;;9.96;62.38
36304;BME280;22335;49.800;8.596;2023-11-18T04:40:34;100979.41;;;7.39;62.39
36304;BME280;22335;49.800;8.596;2023-11-18T04:47:19;101426.59;;;10.20;62.41
36304;BME280;22335;49.800;8.596;2023-11-18T04:54:03;101170.72;;;8.46;62.27
36304;BME280;22335;49.800;8.596;2023-11-18T05:00:49;101081.16;;;7.94;62.42
36304;BME280;22335;49.800;8.596;2023-11-18T05:07:34;101196.97;;;8.52;62.57
36304;BME280;22335;49.800;8.596;2023-11-18T05:14:20;101422.47;;;10.18;62.19
36304;BME280;22335;49.800;8.596;2023-11-18T05:21:04;101420.00;;;10.16;62.55
36304;BME280;22335;49.800;8.596;2023-11-18T05:27:50;101414.47;;;10.11;62.40
36304;BME280;22335;49.800;8.596;2023-11-18T05:34:35;101153.59;;;8.51;62.51
36304;BME280;22335;49.800;8.596;2023-11-18T05:41:19;101439.88;;;10.11;62.45
36304;BME280;22335;49.800;8.596;2023-11-18T05:48:10;101402.44;;;10.12;62.74
36304;BME280;22335;49.800;8.596;2023-11-18T05:54:58;101404.13;;;10.13;62.65
36304;BME280;22335;49.800;8.596;2023-11-18T06:01:44;101222.66;;;9.00;62.91
36304;BME280;22335;49.800;8.596;2023-11-18T06:08:33;101403.00;;;10.14;63.04
36304;BME280;22335;49.800;8.596;2023-11-18T06:15:17;101103.78;;;8.17;62.85
36304;BME280;22335;49.800;8.596;2023-11-18T06:22:04;101410.50;;;10.24;63.00
36304;BME280;22335;49.800;8.596;2023-11-18T06:28:50;101413.56;;;10.27;63.17
36304;BME280;22335;49.800;8.596;2023-11-18T06:35:34;100983.63;;;7.69;63.11
36304;BME280;22335;49.800;8.596;2023-11-18T06:42:22;101348.44;;;9.97;63.21
36304;BME280;22335;49.800;8.596;2023-11-18T06:49:07;101419.91;;;10.33;63.40
36304;BME280;22335;49.800;8.596;2023-11-18T06:55:56;101368.47;;;10.03;63.37
36304;BME280;22335;49.800;8.596;2023-11-18T07:02:40;101412.41;;;10.50;63.56
36304;BME280;22335;49.800;8.596;2023-11-18T07:09:25;101434.06;;;10.57;63.68
36304;BME280;22335;49.800;8.596;2023-11-18T07:16:08;101412.72;;;10.59;63.70
36304;BME280;22335;49.800;8.596;2023-11-18T07:22:53;101439.19;;;10.48;63.99
36304;BME280;22335;49.800;8.596;2023-11-18T07:29:38;101399.38;;;10.30;64.34
36304;BME280;22335;49.800;8.596;2023-11-18T07:36:22;101401.38;;;10.40;64.72
36304;BME280;22335;49.800;8.596;2023-11-18T07:43:11;101126.06;;;8.30;64.90
36304;BME280;22335;49.800;8.596;2023-11-18T07:49:59;101106.22;;;8.13;65.43
36304;BME280;22335;49.800;8.596;2023-11-18T07:56:45;101328.72;;;9.41;66.38
36304;BME280;22335;49.800;8.596;2023-11-18T08:03:54;101436.94;;;9.69;67.25
36304;BME280;22335;49.800;8.596;2023-11-18T08:10:41;101436.91;;;9.64;67.70
36304;BME280;22335;49.800;8.596;2023-11-18T08:17:26;100914.06;;;6.45;67.60
36304;BME280;22335;49.800;8.596;2023-11-18T08:24:10;101437.97;;;9.63;67.91
36304;BME280;22335;49.800;8.596;2023-11-18T08:30:55;101437.78;;;9.69;68.51
36304;BME280;22335;49.800;8.596;2023-11-18T08:37:39;101431.63;;;9.79;68.80
36304;BME280;22335;49.800;8.596;2023-11-18T08:44:25;101212.56;;;8.57;68.40
36304;BME280;22335;49.800;8.596;2023-11-18T08:51:11;101418.84;;;9.85;69.20
36304;BME280;22335;49.800;8.596;2023-11-18T08:57:58;101419.19;;;9.93;69.51
36304;BME280;22335;49.800;8.596;2023-11-18T09:04:45;101413.72;;;9.93;69.58
36304;BME280;22335;49.800;8.596;2023-11-18T09:11:30;100959.16;;;6.97;69.65
36304;BME280;22335;49.800;8.596;2023-11-18T09:18:14;101213.47;;;8.63;70.16
36304;BME280;22335;49.800;8.596;2023-11-18T09:24:59;101407.06;;;9.84;70.73
36304;BME280;22335;49.800;8.596;2023-11-18T09:31:45;101314.91;;;9.26;71.07
36304;BME280;22335;49.800;8.596;2023-11-18T09:38:32;101421.94;;;9.93;71.04
36304;BME280;22335;49.800;8.596;2023-11-18T09:45:17;101420.88;;;9.95;71.10
36304;BME280;22335;49.800;8.596;2023-11-18T09:52:05;101409.34;;;9.92;71.58
36304;BME280;22335;49.800;8.596;2023-11-18T09:59:05;101387.63;;;9.81;71.52
36304;BME280;22335;49.800;8.596;2023-11-18T10:05:57;101290.47;;;9.36;71.33
36304;BME280;22335;49.800;8.596;2023-11-18T10:12:49;101402.03;;;10.25;71.55
36304;BME280;22335;49.800;8.596;2023-11-18T10:19:54;101399.44;;;10.35;71.30
36304;BME280;22335;49.800;8.596;2023-11-18T10:27:06;101410.50;;;10.51;71.18
36304;BME280;22335;49.800;8.596;2023-11-18T10:33:54;101400.38;;;10.51;71.39
36304;BME280;22335;49.800;8.596;2023-11-18T10:40:38;101200.22;;;9.20;71.13
36304;BME280;22335;49.800;8.596;2023-11-18T10:47:23;101379.09;;;10.58;71.48
36304;BME280;22335;49.800;8.596;2023-11-18T10:54:10;100860.44;;;7.35;71.65
36304;BME280;22335;49.800;8.596;2023-11-18T11:00:58;101359.22;;;10.73;71.73
36304;BME280;22335;49.800;8.596;2023-11-18T11:07:43;101358.13;;;10.69;71.71
36304;BME280;22335;49.800;8.596;2023-11-18T11:14:32;101212.84;;;9.86;71.89
36304;BME280;22335;49.800;8.596;2023-11-18T11:21:21;101332.34;;;10.60;71.78
36304;BME280;22335;49.800;8.596;2023-11-18T11:28:10;101314.25;;;10.59;71.39
36304;BME280;22335;49.800;8.596;2023-11-18T11:35:01;101295.63;;;10.51;71.89
36304;BME280;22335;49.800;8.596;2023-11-18T11:41:52;101271.00;;;10.51;72.14
36304;BME280;22335;49.800;8.596;2023-11-18T11:48:38;101267.69;;;10.49;72.31
36304;BME280;22335;49.800;8.596;2023-11-18T11:55:33;101253.50;;;10.52;72.36
36304;BME280;22335;49.800;8.596;2023-11-18T12:02:21;101243.13;;;10.59;71.80
36304;BME280;22335;49.800;8.596;2023-11-18T12:09:08;101233.31;;;10.63;72.15
36304;BME280;22335;49.800;8.596;2023-11-18T12:15:55;101122.47;;;9.98;71.96
36304;BME280;22335;49.800;8.596;2023-11-18T12:23:04;101089.19;;;9.63;72.10
36304;BME280;22335;49.800;8.596;2023-11-18T12:29:55;101212.50;;;10.62;71.97
36304;BME280;22335;49.800;8.596;2023-11-18T12:44:35;101189.22;;;10.54;71.92
36304;BME280;22335;49.800;8.596;2023-11-18T12:51:23;101180.22;;;10.54;72.05
36304;BME280;22335;49.800;8.596;2023-11-18T12:58:08;101155.03;;;10.47;71.80
36304;BME280;22335;49.800;8.596;2023-11-18T13:04:53;101038.22;;;9.84;71.93
36304;BME280;22335;49.800;8.596;2023-11-18T13:11:36;101138.94;;;10.60;71.98
36304;BME280;22335;49.800;8.596;2023-11-18T13:18:25;101091.00;;;10.37;72.09
36304;BME280;22335;49.800;8.596;2023-11-18T13:25:13;101122.47;;;10.55;72.59
36304;BME280;22335;49.800;8.596;2023-11-18T13:31:59;100708.19;;;8.15;72.23
36304;BME280;22335;49.800;8.596;2023-11-18T13:38:47;101100.66;;;10.66;72.66
36304;BME280;22335;49.800;8.596;2023-11-18T13:45:34;100843.75;;;9.19;72.11
36304;BME280;22335;49.800;8.596;2023-11-18T13:52:18;101088.84;;;10.65;72.45
36304;BME280;22335;49.800;8.596;2023-11-18T13:59:04;101041.25;;;10.51;72.27
36304;BME280;22335;49.800;8.596;2023-11-18T14:05:50;101055.25;;;10.75;72.21
36304;BME280;22335;49.800;8.596;2023-11-18T14:12:37;101044.03;;;10.76;72.19
36304;BME280;22335;49.800;8.596;2023-11-18T14:19:22;100878.63;;;9.75;71.94
36304;BME280;22335;49.800;8.596;2023-11-18T14:26:09;101049.50;;;10.76;71.70
36304;BME280;22335;49.800;8.596;2023-11-18T14:32:53;101041.56;;;10.80;71.14
36304;BME280;22335;49.800;8.596;2023-11-18T14:39:38;100968.41;;;10.24;71.17
36304;BME280;22335;49.800;8.596;2023-11-18T14:46:27;101047.59;;;10.82;71.07
36304;BME280;22335;49.800;8.596;2023-11-18T14:53:12;101062.13;;;10.88;70.99
36304;BME280;22335;49.800;8.596;2023-11-18T15:00:02;100913.16;;;10.07;70.84
36304;BME280;22335;49.800;8.596;2023-11-18T15:07:00;100921.66;;;10.10;70.75
36304;BME280;22335;49.800;8.596;2023-11-18T15:13:44;101056.63;;;10.88;70.81
36304;BME280;22335;49.800;8.596;2023-11-18T15:20:29;101047.31;;;10.83;71.12
36304;BME280;22335;49.800;8.596;2023-11-18T15:27:12;100812.94;;;9.24;71.18
36304;BME280;22335;49.800;8.596;2023-11-18T15:33:56;100990.91;;;10.52;71.90
36304;BME280;22335;49.800;8.596;2023-11-18T15:40:42;100983.81;;;10.61;72.12
36304;BME280;22335;49.800;8.596;2023-11-18T15:47:26;100975.34;;;10.57;72.32
36304;BME280;22335;49.800;8.596;2023-11-18T15:54:09;100727.44;;;8.98;72.76
36304;BME280;22335;49.800;8.596;2023-11-18T16:00:54;100924.72;;;10.34;73.43
36304;BME280;22335;49.800;8.596;2023-11-18T16:07:38;100912.91;;;10.24;73.45
36304;BME280;22335;49.800;8.596;2023-11-18T16:14:22;100893.75;;;10.08;73.80
36304;BME280;22335;49.800;8.596;2023-11-18T16:21:07;100929.66;;;10.32;74.05
36304;BME280;22335;49.800;8.596;2023-11-18T16:27:57;100917.06;;;10.42;74.00
36304;BME280;22335;49.800;8.596;2023-11-18T16:34:43;100737.44;;;9.60;73.87
36304;BME280;22335;49.800;8.596;2023-11-18T16:41:28;100869.75;;;10.46;74.09
36304;BME280;22335;49.800;8.596;2023-11-18T16:48:17;100858.00;;;10.51;73.91
36304;BME280;22335;49.800;8.596;2023-11-18T16:55:03;100788.53;;;9.96;73.81
36304;BME280;22335;49.800;8.596;2023-11-18T17:01:48;100660.13;;;9.44;74.05
36304;BME280;22335;49.800;8.596;2023-11-18T17:08:32;100804.66;;;10.43;74.08
36304;BME280;22335;49.800;8.596;2023-11-18T17:15:42;100806.31;;;10.34;74.76
36304;BME280;22335;49.800;8.596;2023-11-18T17:22:27;100484.53;;;8.21;74.78
36304;BME280;22335;49.800;8.596;2023-11-18T17:29:11;100533.94;;;8.50;74.89
36304;BME280;22335;49.800;8.596;2023-11-18T17:35:55;100812.88;;;10.28;75.67
36304;BME280;22335;49.800;8.596;2023-11-18T17:42:42;100789.13;;;10.28;76.01
36304;BME280;22335;49.800;8.596;2023-11-18T17:49:30;100384.94;;;7.62;76.27
36304;BME280;22335;49.800;8.596;2023-11-18T17:56:14;100717.72;;;10.25;76.60
36304;BME280;22335;49.800;8.596;2023-11-18T18:03:00;100680.56;;;10.19;77.19
36304;BME280;22335;49.800;8.596;2023-11-18T18:09:44;100663.38;;;10.08;77.75
36304;BME280;22335;49.800;8.596;2023-11-18T18:16:29;100648.88;;;10.02;78.11
36304;BME280;22335;49.800;8.596;2023-11-18T18:23:15;100648.06;;;10.07;78.34
36304;BME280;22335;49.800;8.596;2023-11-18T18:29:58;100651.88;;;10.16;78.40
36304;BME280;22335;49.800;8.596;2023-11-18T18:36:42;100642.03;;;10.20;78.19
36304;BME280;22335;49.800;8.596;2023-11-18T18:43:27;100632.19;;;10.29;77.98
36304;BME280;22335;49.800;8.596;2023-11-18T18:50:11;100655.69;;;10.35;77.56
36304;BME280;22335;49.800;8.596;2023-11-18T18:56:55;100635.47;;;10.31;78.10
36304;BME280;22335;49.800;8.596;2023-11-18T19:03:42;100633.00;;;10.30;77.72
36304;BME280;22335;49.800;8.596;2023-11-18T19:10:26;100611.94;;;10.25;77.56
36304;BME280;22335;49.800;8.596;2023-11-18T19:17:10;100411.53;;;9.05;77.74
36304;BME280;22335;49.800;8.596;2023-11-18T19:23:56;100588.97;;;10.21;78.24
36304;BME280;22335;49.800;8.596;2023-11-18T19:30:41;100307.69;;;8.25;78.23
36304;BME280;22335;49.800;8.596;2023-11-18T19:37:25;100618.78;;;10.33;78.27
36304;BME280;22335;49.800;8.596;2023-11-18T19:44:10;100600.44;;;10.44;77.81
36304;BME280;22335;49.800;8.596;2023-11-18T19:50:54;100577.69;;;10.48;77.54
36304;BME280;22335;49.800;8.596;2023-11-18T19:57:38;100565.94;;;10.48;77.46
36304;BME280;22335;49.800;8.596;2023-11-18T20:04:23;100553.66;;;10.45;77.63
36304;BME280;22335;49.800;8.596;2023-11-18T20:11:07;100456.13;;;9.70;77.52
36304;BME280;22335;49.800;8.596;2023-11-18T20:17:51;100572.78;;;10.45;77.71
36304;BME280;22335;49.800;8.596;2023-11-18T20:24:38;100582.63;;;10.46;77.99
36304;BME280;22335;49.800;8.596;2023-11-18T20:31:21;100381.75;;;9.19;78.21
36304;BME280;22335;49.800;8.596;2023-11-18T20:38:05;100564.88;;;10.44;78.50
36304;BME280;22335;49.800;8.596;2023-11-18T20:44:51;100488.53;;;9.98;78.90
36304;BME280;22335;49.800;8.596;2023-11-18T20:51:35;100553.44;;;10.21;79.24
36304;BME280;22335;49.800;8.596;2023-11-18T20:58:19;100564.59;;;10.45;79.24
36304;BME280;22335;49.800;8.596;2023-11-18T21:05:05;100432.66;;;9.69;79.70
36304;BME280;22335;49.800;8.596;2023-11-18T21:11:50;100462.88;;;9.83;79.32
36304;BME280;22335;49.800;8.596;2023-11-18T21:18:41;100562.59;;;10.56;79.50
36304;BME280;22335;49.800;8.596;2023-11-18T21:25:26;100522.63;;;10.65;79.37
36304;BME280;22335;49.800;8.596;2023-11-18T21:32:10;100499.34;;;10.68;79.39
36304;BME280;22335;49.800;8.596;2023-11-18T21:38:53;100472.31;;;10.66;79.73
36304;BME280;22335;49.800;8.596;2023-11-18T21:45:38;100464.94;;;10.61;80.19
36304;BME280;22335;49.800;8.596;2023-11-18T21:52:23;100380.78;;;10.09;80.21
36304;BME280;22335;49.800;8.596;2023-11-18T21:59:07;100365.88;;;9.91;80.38
36304;BME280;22335;49.800;8.596;2023-11-18T22:05:56;100468.28;;;10.53;80.83
36304;BME280;22335;49.800;8.596;2023-11-18T22:12:39;100459.22;;;10.58;80.76
36304;BME280;22335;49.800;8.596;2023-11-18T22:19:25;100332.25;;;9.96;80.59
36304;BME280;22335;49.800;8.596;2023-11-18T22:26:15;100443.28;;;10.65;80.85
36304;BME280;22335;49.800;8.596;2023-11-18T22:33:01;100259.84;;;9.54;81.26
36304;BME280;22335;49.800;8.596;2023-11-18T22:39:46;99842.94;;;7.14;80.95
36304;BME280;22335;49.800;8.596;2023-11-18T22:46:32;100394.16;;;10.55;81.82
36304;BME280;22335;49.800;8.596;2023-11-18T22:53:15;100407.28;;;10.53;82.32
36304;BME280;22335;49.800;8.596;2023-11-18T22:59:59;100372.28;;;10.55;82.73
36304;BME280;22335;49.800;8.596;2023-11-18T23:06:45;100405.06;;;10.60;83.00
36304;BME280;22335;49.800;8.596;2023-11-18T23:13:36;100385.34;;;10.63;83.06
36304;BME280;22335;49.800;8.596;2023-11-18T23:20:20;100126.78;;;8.96;83.06
36304;BME280;22335;49.800;8.596;2023-11-18T23:27:06;100395.28;;;10.83;83.22
36304;BME280;22335;49.800;8.596;2023-11-18T23:33:50;100189.72;;;9.83;83.01
36304;BME280;22335;49.800;8.596;2023-11-18T23:40:34;100284.19;;;10.29;83.96
36304;BME280;22335;49.800;8.596;2023-11-18T23:47:20;100358.34;;;10.80;84.13
36304;BME280;22335;49.800;8.596;2023-11-18T23:54:04;100373.16;;;10.79;84.22
